KSAA/SAA METAR and TAF weather

Enter ICAO airport designator
Station Type Date Time Source
KSAA METAR 2020/09/20 09:55 UTC NOAA

KSAA 200955Z AUTO 17008KT 10SM CLR 06/06 A3023 RMK AO2


Station Type Date Time Source
KSAA Decoded METAR 2020/09/20 09:55 UTC NOAA

Station name not available
Sep 20, 2020 - 05:55 AM EDT / 2020.09.20 0955 UTC
Wind: from the S (170 degrees) at 9 MPH (8 KT):0
Visibility: 10 mile(s):0
Sky conditions: clear
Temperature: 42 F (6 C)
Dew Point: 42 F (6 C)
Relative Humidity: 100%
Pressure (altimeter): 30.23 in. Hg (1023 hPa)
ob: KSAA 200955Z AUTO 17008KT 10SM CLR 06/06 A3023 RMK AO2
cycle: 10

Station Type Date Time Source
KSAA TAF UTC NOAA

Error!

Example: see airport list